sensor_id;sensor_type;location;lat;lon;timestamp;temperature;humidity
69335;SHT31;56477;52.742;15.242;2022-07-23T00:01:23;17.57;85.51
69335;SHT31;56477;52.742;15.242;2022-07-23T00:03:50;17.54;85.47
69335;SHT31;56477;52.742;15.242;2022-07-23T00:06:17;17.51;85.57
69335;SHT31;56477;52.742;15.242;2022-07-23T00:08:43;17.47;85.67
69335;SHT31;56477;52.742;15.242;2022-07-23T00:11:09;17.43;85.80
69335;SHT31;56477;52.742;15.242;2022-07-23T00:13:35;17.40;85.76
69335;SHT31;56477;52.742;15.242;2022-07-23T00:16:01;17.37;85.89
69335;SHT31;56477;52.742;15.242;2022-07-23T00:18:27;17.36;86.01
69335;SHT31;56477;52.742;15.242;2022-07-23T00:20:53;17.31;85.92
69335;SHT31;56477;52.742;15.242;2022-07-23T00:23:19;17.33;85.89
69335;SHT31;56477;52.742;15.242;2022-07-23T00:25:45;17.27;86.37
69335;SHT31;56477;52.742;15.242;2022-07-23T00:28:11;17.26;86.33
69335;SHT31;56477;52.742;15.242;2022-07-23T00:30:37;17.22;86.68
69335;SHT31;56477;52.742;15.242;2022-07-23T00:33:06;17.27;86.73
69335;SHT31;56477;52.742;15.242;2022-07-23T00:35:34;17.23;86.75
69335;SHT31;56477;52.742;15.242;2022-07-23T00:38:00;17.18;86.56
69335;SHT31;56477;52.742;15.242;2022-07-23T00:40:27;17.18;86.59
69335;SHT31;56477;52.742;15.242;2022-07-23T00:42:54;17.18;86.50
69335;SHT31;56477;52.742;15.242;2022-07-23T00:45:20;17.10;86.92
69335;SHT31;56477;52.742;15.242;2022-07-23T00:47:46;17.13;87.09
69335;SHT31;56477;52.742;15.242;2022-07-23T00:50:13;17.13;86.76
69335;SHT31;56477;52.742;15.242;2022-07-23T00:52:39;17.12;86.66
69335;SHT31;56477;52.742;15.242;2022-07-23T00:55:07;17.08;86.69
69335;SHT31;56477;52.742;15.242;2022-07-23T00:57:33;16.99;86.94
69335;SHT31;56477;52.742;15.242;2022-07-23T00:59:59;16.95;87.21
69335;SHT31;56477;52.742;15.242;2022-07-23T01:02:26;16.98;87.14
69335;SHT31;56477;52.742;15.242;2022-07-23T01:04:53;16.92;87.18
69335;SHT31;56477;52.742;15.242;2022-07-23T01:07:20;16.89;87.41
69335;SHT31;56477;52.742;15.242;2022-07-23T01:09:46;16.82;87.74
69335;SHT31;56477;52.742;15.242;2022-07-23T01:12:12;16.83;87.66
69335;SHT31;56477;52.742;15.242;2022-07-23T01:14:38;16.85;87.43
69335;SHT31;56477;52.742;15.242;2022-07-23T01:17:05;16.83;87.41
69335;SHT31;56477;52.742;15.242;2022-07-23T01:19:30;16.85;87.62
69335;SHT31;56477;52.742;15.242;2022-07-23T01:21:57;16.83;87.75
69335;SHT31;56477;52.742;15.242;2022-07-23T01:24:24;16.82;88.15
69335;SHT31;56477;52.742;15.242;2022-07-23T01:26:50;16.88;87.93
69335;SHT31;56477;52.742;15.242;2022-07-23T01:29:16;16.91;87.80
69335;SHT31;56477;52.742;15.242;2022-07-23T01:31:43;16.89;87.63
69335;SHT31;56477;52.742;15.242;2022-07-23T01:34:09;16.88;87.80
69335;SHT31;56477;52.742;15.242;2022-07-23T01:36:35;16.85;87.81
69335;SHT31;56477;52.742;15.242;2022-07-23T01:39:05;16.82;87.57
69335;SHT31;56477;52.742;15.242;2022-07-23T01:41:31;16.76;87.85
69335;SHT31;56477;52.742;15.242;2022-07-23T01:43:57;16.67;88.76
69335;SHT31;56477;52.742;15.242;2022-07-23T01:46:23;16.71;88.80
69335;SHT31;56477;52.742;15.242;2022-07-23T01:48:49;16.71;88.65
69335;SHT31;56477;52.742;15.242;2022-07-23T01:51:15;16.73;88.72
69335;SHT31;56477;52.742;15.242;2022-07-23T01:53:41;16.75;88.50
69335;SHT31;56477;52.742;15.242;2022-07-23T01:56:07;16.69;88.57
69335;SHT31;56477;52.742;15.242;2022-07-23T01:58:33;16.69;88.81
69335;SHT31;56477;52.742;15.242;2022-07-23T02:00:59;16.67;88.78
69335;SHT31;56477;52.742;15.242;2022-07-23T02:03:26;16.61;89.14
69335;SHT31;56477;52.742;15.242;2022-07-23T02:05:52;16.58;89.30
69335;SHT31;56477;52.742;15.242;2022-07-23T02:08:18;16.62;89.31
69335;SHT31;56477;52.742;15.242;2022-07-23T02:10:44;16.67;89.27
69335;SHT31;56477;52.742;15.242;2022-07-23T02:13:11;16.68;88.92
69335;SHT31;56477;52.742;15.242;2022-07-23T02:15:37;16.62;89.13
69335;SHT31;56477;52.742;15.242;2022-07-23T02:18:03;16.54;89.48
69335;SHT31;56477;52.742;15.242;2022-07-23T02:20:29;16.55;89.55
69335;SHT31;56477;52.742;15.242;2022-07-23T02:22:55;16.60;89.57
69335;SHT31;56477;52.742;15.242;2022-07-23T02:25:21;16.62;89.59
69335;SHT31;56477;52.742;15.242;2022-07-23T02:27:47;16.69;89.29
69335;SHT31;56477;52.742;15.242;2022-07-23T02:30:13;16.75;89.06
69335;SHT31;56477;52.742;15.242;2022-07-23T02:32:39;16.73;88.87
69335;SHT31;56477;52.742;15.242;2022-07-23T02:35:05;16.76;88.75
69335;SHT31;56477;52.742;15.242;2022-07-23T02:37:32;16.75;88.71
69335;SHT31;56477;52.742;15.242;2022-07-23T02:39:58;16.75;88.71
69335;SHT31;56477;52.742;15.242;2022-07-23T02:42:24;16.69;89.02
69335;SHT31;56477;52.742;15.242;2022-07-23T02:44:51;16.67;89.36
69335;SHT31;56477;52.742;15.242;2022-07-23T02:47:17;16.62;89.81
69335;SHT31;56477;52.742;15.242;2022-07-23T02:49:43;16.67;89.74
69335;SHT31;56477;52.742;15.242;2022-07-23T02:52:09;16.69;89.50
69335;SHT31;56477;52.742;15.242;2022-07-23T02:54:38;16.71;89.28
69335;SHT31;56477;52.742;15.242;2022-07-23T02:57:04;16.71;89.24
69335;SHT31;56477;52.742;15.242;2022-07-23T02:59:30;16.68;89.27
69335;SHT31;56477;52.742;15.242;2022-07-23T03:01:56;16.65;89.45
69335;SHT31;56477;52.742;15.242;2022-07-23T03:04:22;16.67;89.47
69335;SHT31;56477;52.742;15.242;2022-07-23T03:06:48;16.65;89.48
69335;SHT31;56477;52.742;15.242;2022-07-23T03:09:14;16.62;89.48
69335;SHT31;56477;52.742;15.242;2022-07-23T03:11:39;16.57;89.53
69335;SHT31;56477;52.742;15.242;2022-07-23T03:14:06;16.60;89.25
69335;SHT31;56477;52.742;15.242;2022-07-23T03:16:33;16.52;89.00
69335;SHT31;56477;52.742;15.242;2022-07-23T03:18:58;16.57;89.01
69335;SHT31;56477;52.742;15.242;2022-07-23T03:21:25;16.38;88.74
69335;SHT31;56477;52.742;15.242;2022-07-23T03:23:51;16.20;89.13
69335;SHT31;56477;52.742;15.242;2022-07-23T03:26:16;16.14;89.35
69335;SHT31;56477;52.742;15.242;2022-07-23T03:28:42;16.14;89.42
69335;SHT31;56477;52.742;15.242;2022-07-23T03:31:08;16.07;89.72
69335;SHT31;56477;52.742;15.242;2022-07-23T03:33:34;16.12;89.66
69335;SHT31;56477;52.742;15.242;2022-07-23T03:36:00;16.00;90.13
69335;SHT31;56477;52.742;15.242;2022-07-23T03:38:26;16.06;89.97
69335;SHT31;56477;52.742;15.242;2022-07-23T03:40:52;16.16;89.81
69335;SHT31;56477;52.742;15.242;2022-07-23T03:43:18;16.27;89.64
69335;SHT31;56477;52.742;15.242;2022-07-23T03:45:44;16.33;89.40
69335;SHT31;56477;52.742;15.242;2022-07-23T03:48:10;16.35;89.18
69335;SHT31;56477;52.742;15.242;2022-07-23T03:50:36;16.35;89.08
69335;SHT31;56477;52.742;15.242;2022-07-23T03:53:02;16.34;88.48
69335;SHT31;56477;52.742;15.242;2022-07-23T03:55:28;16.10;88.91
69335;SHT31;56477;52.742;15.242;2022-07-23T03:57:55;15.97;89.42
69335;SHT31;56477;52.742;15.242;2022-07-23T04:00:21;16.06;89.28
69335;SHT31;56477;52.742;15.242;2022-07-23T04:02:47;16.04;89.51
69335;SHT31;56477;52.742;15.242;2022-07-23T04:05:13;16.04;89.55
69335;SHT31;56477;52.742;15.242;2022-07-23T04:07:39;16.13;89.56
69335;SHT31;56477;52.742;15.242;2022-07-23T04:10:06;16.21;89.47
69335;SHT31;56477;52.742;15.242;2022-07-23T04:12:32;16.25;88.84
69335;SHT31;56477;52.742;15.242;2022-07-23T04:14:58;16.24;89.11
69335;SHT31;56477;52.742;15.242;2022-07-23T04:17:23;16.33;88.89
69335;SHT31;56477;52.742;15.242;2022-07-23T04:19:50;16.31;89.73
69335;SHT31;56477;52.742;15.242;2022-07-23T04:22:15;16.40;89.43
69335;SHT31;56477;52.742;15.242;2022-07-23T04:24:41;16.52;89.26
69335;SHT31;56477;52.742;15.242;2022-07-23T04:27:07;16.65;88.76
69335;SHT31;56477;52.742;15.242;2022-07-23T04:29:33;16.76;88.25
69335;SHT31;56477;52.742;15.242;2022-07-23T04:31:59;16.86;87.79
69335;SHT31;56477;52.742;15.242;2022-07-23T04:34:25;16.96;87.67
69335;SHT31;56477;52.742;15.242;2022-07-23T04:36:52;17.09;87.18
69335;SHT31;56477;52.742;15.242;2022-07-23T04:39:19;17.23;86.74
69335;SHT31;56477;52.742;15.242;2022-07-23T04:41:45;17.26;86.87
69335;SHT31;56477;52.742;15.242;2022-07-23T04:44:10;17.37;86.52
69335;SHT31;56477;52.742;15.242;2022-07-23T04:46:36;17.47;86.14
69335;SHT31;56477;52.742;15.242;2022-07-23T04:49:02;17.54;86.19
69335;SHT31;56477;52.742;15.242;2022-07-23T04:51:28;17.58;85.75
69335;SHT31;56477;52.742;15.242;2022-07-23T04:53:55;17.64;85.35
69335;SHT31;56477;52.742;15.242;2022-07-23T04:56:21;17.64;85.95
69335;SHT31;56477;52.742;15.242;2022-07-23T04:58:47;17.63;86.10
69335;SHT31;56477;52.742;15.242;2022-07-23T05:01:13;17.73;85.72
69335;SHT31;56477;52.742;15.242;2022-07-23T05:03:39;17.87;85.05
69335;SHT31;56477;52.742;15.242;2022-07-23T05:06:05;17.97;84.36
69335;SHT31;56477;52.742;15.242;2022-07-23T05:08:31;18.06;84.06
69335;SHT31;56477;52.742;15.242;2022-07-23T05:10:57;18.04;84.06
69335;SHT31;56477;52.742;15.242;2022-07-23T05:13:23;17.92;84.63
69335;SHT31;56477;52.742;15.242;2022-07-23T05:15:49;17.77;84.91
69335;SHT31;56477;52.742;15.242;2022-07-23T05:18:15;17.81;85.06
69335;SHT31;56477;52.742;15.242;2022-07-23T05:20:41;17.79;84.85
69335;SHT31;56477;52.742;15.242;2022-07-23T05:23:07;17.89;84.50
69335;SHT31;56477;52.742;15.242;2022-07-23T05:25:33;17.95;84.90
69335;SHT31;56477;52.742;15.242;2022-07-23T05:27:59;17.94;84.64
69335;SHT31;56477;52.742;15.242;2022-07-23T05:30:25;17.95;84.55
69335;SHT31;56477;52.742;15.242;2022-07-23T05:32:51;18.05;84.42
69335;SHT31;56477;52.742;15.242;2022-07-23T05:35:17;18.18;84.04
69335;SHT31;56477;52.742;15.242;2022-07-23T05:37:43;18.30;83.93
69335;SHT31;56477;52.742;15.242;2022-07-23T05:40:10;18.43;83.42
69335;SHT31;56477;52.742;15.242;2022-07-23T05:42:37;18.52;83.15
69335;SHT31;56477;52.742;15.242;2022-07-23T05:45:04;18.55;83.11
69335;SHT31;56477;52.742;15.242;2022-07-23T05:47:48;18.53;83.50
69335;SHT31;56477;52.742;15.242;2022-07-23T05:50:15;18.55;83.06
69335;SHT31;56477;52.742;15.242;2022-07-23T05:52:42;18.30;84.08
69335;SHT31;56477;52.742;15.242;2022-07-23T05:55:09;18.10;84.68
69335;SHT31;56477;52.742;15.242;2022-07-23T05:57:35;18.09;84.95
69335;SHT31;56477;52.742;15.242;2022-07-23T06:00:04;18.06;85.07
69335;SHT31;56477;52.742;15.242;2022-07-23T06:02:30;18.13;85.35
69335;SHT31;56477;52.742;15.242;2022-07-23T06:04:56;18.26;84.91
69335;SHT31;56477;52.742;15.242;2022-07-23T06:07:22;18.35;84.23
69335;SHT31;56477;52.742;15.242;2022-07-23T06:09:48;18.35;84.34
69335;SHT31;56477;52.742;15.242;2022-07-23T06:12:18;18.36;84.58
69335;SHT31;56477;52.742;15.242;2022-07-23T06:14:44;18.28;85.54
69335;SHT31;56477;52.742;15.242;2022-07-23T06:17:09;18.22;86.05
69335;SHT31;56477;52.742;15.242;2022-07-23T06:19:35;18.33;85.70
69335;SHT31;56477;52.742;15.242;2022-07-23T06:22:01;18.37;85.38
69335;SHT31;56477;52.742;15.242;2022-07-23T06:24:28;18.46;85.39
69335;SHT31;56477;52.742;15.242;2022-07-23T06:26:53;18.52;85.53
69335;SHT31;56477;52.742;15.242;2022-07-23T06:29:19;18.50;85.43
69335;SHT31;56477;52.742;15.242;2022-07-23T06:31:45;18.47;85.10
69335;SHT31;56477;52.742;15.242;2022-07-23T06:34:11;18.52;85.24
69335;SHT31;56477;52.742;15.242;2022-07-23T06:36:37;18.45;84.79
69335;SHT31;56477;52.742;15.242;2022-07-23T06:39:03;18.42;84.37
69335;SHT31;56477;52.742;15.242;2022-07-23T06:41:29;18.49;85.87
69335;SHT31;56477;52.742;15.242;2022-07-23T06:43:55;18.37;84.31
69335;SHT31;56477;52.742;15.242;2022-07-23T06:46:21;18.49;84.52
69335;SHT31;56477;52.742;15.242;2022-07-23T06:48:47;18.49;83.70
69335;SHT31;56477;52.742;15.242;2022-07-23T06:51:13;18.33;85.35
69335;SHT31;56477;52.742;15.242;2022-07-23T06:53:39;18.19;84.40
69335;SHT31;56477;52.742;15.242;2022-07-23T06:56:05;18.28;85.21
69335;SHT31;56477;52.742;15.242;2022-07-23T06:58:31;18.35;84.15
69335;SHT31;56477;52.742;15.242;2022-07-23T07:00:57;18.32;84.00
69335;SHT31;56477;52.742;15.242;2022-07-23T07:03:23;18.12;84.64
69335;SHT31;56477;52.742;15.242;2022-07-23T07:05:49;18.26;85.78
69335;SHT31;56477;52.742;15.242;2022-07-23T07:08:15;18.40;84.10
69335;SHT31;56477;52.742;15.242;2022-07-23T07:10:41;18.63;84.29
69335;SHT31;56477;52.742;15.242;2022-07-23T07:13:08;18.73;84.79
69335;SHT31;56477;52.742;15.242;2022-07-23T07:15:34;18.67;81.99
69335;SHT31;56477;52.742;15.242;2022-07-23T07:17:59;18.74;83.97
69335;SHT31;56477;52.742;15.242;2022-07-23T07:20:26;18.85;83.26
69335;SHT31;56477;52.742;15.242;2022-07-23T07:22:52;18.95;82.77
69335;SHT31;56477;52.742;15.242;2022-07-23T07:25:18;18.84;82.85
69335;SHT31;56477;52.742;15.242;2022-07-23T07:27:44;18.76;82.96
69335;SHT31;56477;52.742;15.242;2022-07-23T07:30:10;18.76;82.88
69335;SHT31;56477;52.742;15.242;2022-07-23T07:32:37;18.90;82.44
69335;SHT31;56477;52.742;15.242;2022-07-23T07:35:04;19.12;82.19
69335;SHT31;56477;52.742;15.242;2022-07-23T07:37:30;18.93;82.44
69335;SHT31;56477;52.742;15.242;2022-07-23T07:39:56;18.49;83.76
69335;SHT31;56477;52.742;15.242;2022-07-23T07:42:22;18.59;83.81
69335;SHT31;56477;52.742;15.242;2022-07-23T07:44:47;18.47;83.77
69335;SHT31;56477;52.742;15.242;2022-07-23T07:47:13;18.21;84.63
69335;SHT31;56477;52.742;15.242;2022-07-23T07:49:42;18.30;84.95
69335;SHT31;56477;52.742;15.242;2022-07-23T07:52:08;18.43;84.33
69335;SHT31;56477;52.742;15.242;2022-07-23T07:54:34;18.33;84.54
69335;SHT31;56477;52.742;15.242;2022-07-23T07:57:00;18.10;84.34
69335;SHT31;56477;52.742;15.242;2022-07-23T07:59:26;17.97;84.87
69335;SHT31;56477;52.742;15.242;2022-07-23T08:01:52;17.77;84.98
69335;SHT31;56477;52.742;15.242;2022-07-23T08:04:18;17.77;85.04
69335;SHT31;56477;52.742;15.242;2022-07-23T08:06:44;17.79;84.81
69335;SHT31;56477;52.742;15.242;2022-07-23T08:09:10;17.84;84.59
69335;SHT31;56477;52.742;15.242;2022-07-23T08:11:36;17.97;84.72
69335;SHT31;56477;52.742;15.242;2022-07-23T08:14:02;17.92;84.53
69335;SHT31;56477;52.742;15.242;2022-07-23T08:16:28;17.84;84.28
69335;SHT31;56477;52.742;15.242;2022-07-23T08:18:54;17.54;85.66
69335;SHT31;56477;52.742;15.242;2022-07-23T08:21:20;17.54;85.26
69335;SHT31;56477;52.742;15.242;2022-07-23T08:23:46;17.34;86.35
69335;SHT31;56477;52.742;15.242;2022-07-23T08:26:12;17.18;87.62
69335;SHT31;56477;52.742;15.242;2022-07-23T08:28:38;17.12;87.81
69335;SHT31;56477;52.742;15.242;2022-07-23T08:31:04;17.06;88.02
69335;SHT31;56477;52.742;15.242;2022-07-23T08:33:31;17.15;88.19
69335;SHT31;56477;52.742;15.242;2022-07-23T08:35:57;17.05;89.85
69335;SHT31;56477;52.742;15.242;2022-07-23T08:38:24;17.05;91.97
69335;SHT31;56477;52.742;15.242;2022-07-23T08:40:55;17.00;92.35
69335;SHT31;56477;52.742;15.242;2022-07-23T08:43:25;16.98;91.49
69335;SHT31;56477;52.742;15.242;2022-07-23T08:45:53;16.92;91.55
69335;SHT31;56477;52.742;15.242;2022-07-23T08:48:24;17.18;93.42
69335;SHT31;56477;52.742;15.242;2022-07-23T08:50:54;17.91;92.18
69335;SHT31;56477;52.742;15.242;2022-07-23T08:53:21;18.70;90.39
69335;SHT31;56477;52.742;15.242;2022-07-23T08:55:49;19.12;89.98
69335;SHT31;56477;52.742;15.242;2022-07-23T08:58:16;20.56;86.32
69335;SHT31;56477;52.742;15.242;2022-07-23T09:00:42;21.10;83.60
69335;SHT31;56477;52.742;15.242;2022-07-23T09:03:17;22.09;79.77
69335;SHT31;56477;52.742;15.242;2022-07-23T09:05:43;22.97;74.83
69335;SHT31;56477;52.742;15.242;2022-07-23T09:08:14;22.95;72.54
69335;SHT31;56477;52.742;15.242;2022-07-23T09:10:57;22.70;74.44
69335;SHT31;56477;52.742;15.242;2022-07-23T09:15:50;22.94;71.54
69335;SHT31;56477;52.742;15.242;2022-07-23T09:18:16;23.39;70.20
69335;SHT31;56477;52.742;15.242;2022-07-23T09:20:46;23.51;69.51
69335;SHT31;56477;52.742;15.242;2022-07-23T09:23:12;22.46;72.58
69335;SHT31;56477;52.742;15.242;2022-07-23T09:25:37;22.54;74.01
69335;SHT31;56477;52.742;15.242;2022-07-23T09:28:03;22.71;72.00
69335;SHT31;56477;52.742;15.242;2022-07-23T09:30:33;22.81;69.90
69335;SHT31;56477;52.742;15.242;2022-07-23T09:33:11;22.91;69.24
69335;SHT31;56477;52.742;15.242;2022-07-23T09:35:51;21.71;73.21
69335;SHT31;56477;52.742;15.242;2022-07-23T09:38:18;21.51;73.01
69335;SHT31;56477;52.742;15.242;2022-07-23T09:40:46;21.81;73.26
69335;SHT31;56477;52.742;15.242;2022-07-23T09:43:26;22.56;73.50
69335;SHT31;56477;52.742;15.242;2022-07-23T09:46:47;22.94;71.34
69335;SHT31;56477;52.742;15.242;2022-07-23T09:49:22;21.58;73.11
69335;SHT31;56477;52.742;15.242;2022-07-23T09:51:51;21.27;73.41
69335;SHT31;56477;52.742;15.242;2022-07-23T09:54:33;21.65;73.15
69335;SHT31;56477;52.742;15.242;2022-07-23T09:57:03;21.67;72.47
69335;SHT31;56477;52.742;15.242;2022-07-23T09:59:33;21.59;71.31
69335;SHT31;56477;52.742;15.242;2022-07-23T10:02:00;21.74;72.06
69335;SHT31;56477;52.742;15.242;2022-07-23T10:04:29;21.67;73.88
69335;SHT31;56477;52.742;15.242;2022-07-23T10:07:01;21.69;72.98
69335;SHT31;56477;52.742;15.242;2022-07-23T10:09:30;21.31;74.42
69335;SHT31;56477;52.742;15.242;2022-07-23T10:11:59;20.65;75.80
69335;SHT31;56477;52.742;15.242;2022-07-23T10:14:30;20.09;77.71
69335;SHT31;56477;52.742;15.242;2022-07-23T10:16:58;20.48;78.17
69335;SHT31;56477;52.742;15.242;2022-07-23T10:19:24;20.95;76.34
69335;SHT31;56477;52.742;15.242;2022-07-23T10:22:02;21.11;74.99
69335;SHT31;56477;52.742;15.242;2022-07-23T10:25:00;21.61;72.91
69335;SHT31;56477;52.742;15.242;2022-07-23T10:38:25;23.42;67.30
69335;SHT31;56477;52.742;15.242;2022-07-23T10:40:58;23.80;65.61
69335;SHT31;56477;52.742;15.242;2022-07-23T10:43:24;23.86;63.56
69335;SHT31;56477;52.742;15.242;2022-07-23T10:45:51;24.25;63.25
69335;SHT31;56477;52.742;15.242;2022-07-23T10:48:22;23.62;64.00
69335;SHT31;56477;52.742;15.242;2022-07-23T10:57:04;22.90;66.25
69335;SHT31;56477;52.742;15.242;2022-07-23T11:02:55;23.01;65.05
69335;SHT31;56477;52.742;15.242;2022-07-23T11:05:38;23.12;63.18
69335;SHT31;56477;52.742;15.242;2022-07-23T11:08:21;24.28;61.23
69335;SHT31;56477;52.742;15.242;2022-07-23T11:16:06;24.11;59.75
69335;SHT31;56477;52.742;15.242;2022-07-23T11:26:48;23.70;62.41
69335;SHT31;56477;52.742;15.242;2022-07-23T11:32:05;22.26;67.13
69335;SHT31;56477;52.742;15.242;2022-07-23T11:34:49;22.19;66.72
69335;SHT31;56477;52.742;15.242;2022-07-23T11:39:55;21.64;67.63
69335;SHT31;56477;52.742;15.242;2022-07-23T11:42:21;21.04;68.79
69335;SHT31;56477;52.742;15.242;2022-07-23T11:44:50;21.50;68.70
69335;SHT31;56477;52.742;15.242;2022-07-23T11:47:24;21.46;68.58
69335;SHT31;56477;52.742;15.242;2022-07-23T11:49:55;21.44;68.06
69335;SHT31;56477;52.742;15.242;2022-07-23T11:52:22;21.31;69.30
69335;SHT31;56477;52.742;15.242;2022-07-23T11:54:56;21.38;70.18
69335;SHT31;56477;52.742;15.242;2022-07-23T11:57:28;21.61;69.18
69335;SHT31;56477;52.742;15.242;2022-07-23T11:59:56;21.91;68.93
69335;SHT31;56477;52.742;15.242;2022-07-23T12:02:23;21.84;68.67
69335;SHT31;56477;52.742;15.242;2022-07-23T12:04:52;21.27;68.71
69335;SHT31;56477;52.742;15.242;2022-07-23T12:09:54;20.85;70.44
69335;SHT31;56477;52.742;15.242;2022-07-23T12:12:23;20.80;72.18
69335;SHT31;56477;52.742;15.242;2022-07-23T12:15:11;20.76;70.83
69335;SHT31;56477;52.742;15.242;2022-07-23T12:17:40;20.85;71.49
69335;SHT31;56477;52.742;15.242;2022-07-23T12:20:16;20.65;71.21
69335;SHT31;56477;52.742;15.242;2022-07-23T12:22:49;20.76;72.67
69335;SHT31;56477;52.742;15.242;2022-07-23T12:25:20;20.67;71.19
69335;SHT31;56477;52.742;15.242;2022-07-23T12:28:05;20.38;72.11
69335;SHT31;56477;52.742;15.242;2022-07-23T12:30:54;20.28;73.52
69335;SHT31;56477;52.742;15.242;2022-07-23T12:33:23;20.38;73.17
69335;SHT31;56477;52.742;15.242;2022-07-23T12:35:50;20.38;72.27
69335;SHT31;56477;52.742;15.242;2022-07-23T12:38:22;20.35;71.80
69335;SHT31;56477;52.742;15.242;2022-07-23T12:40:50;20.53;72.14
69335;SHT31;56477;52.742;15.242;2022-07-23T12:43:23;20.76;72.05
69335;SHT31;56477;52.742;15.242;2022-07-23T12:51:00;21.13;70.88
69335;SHT31;56477;52.742;15.242;2022-07-23T12:53:38;20.96;69.57
69335;SHT31;56477;52.742;15.242;2022-07-23T12:56:26;20.90;69.84
69335;SHT31;56477;52.742;15.242;2022-07-23T12:59:07;20.90;69.12
69335;SHT31;56477;52.742;15.242;2022-07-23T13:01:41;21.22;68.50
69335;SHT31;56477;52.742;15.242;2022-07-23T13:04:19;21.36;69.34
69335;SHT31;56477;52.742;15.242;2022-07-23T13:06:48;21.20;68.03
69335;SHT31;56477;52.742;15.242;2022-07-23T13:09:17;20.71;69.29
69335;SHT31;56477;52.742;15.242;2022-07-23T13:11:44;20.82;69.49
69335;SHT31;56477;52.742;15.242;2022-07-23T13:14:11;20.80;70.98
69335;SHT31;56477;52.742;15.242;2022-07-23T13:16:39;21.02;68.20
69335;SHT31;56477;52.742;15.242;2022-07-23T13:19:05;21.16;68.71
69335;SHT31;56477;52.742;15.242;2022-07-23T13:21:32;21.46;67.30
69335;SHT31;56477;52.742;15.242;2022-07-23T13:23:58;21.98;67.26
69335;SHT31;56477;52.742;15.242;2022-07-23T13:26:25;22.32;64.63
69335;SHT31;56477;52.742;15.242;2022-07-23T13:28:51;21.86;64.79
69335;SHT31;56477;52.742;15.242;2022-07-23T13:31:17;23.14;61.06
69335;SHT31;56477;52.742;15.242;2022-07-23T13:33:43;24.37;57.66
69335;SHT31;56477;52.742;15.242;2022-07-23T13:36:09;24.18;58.32
69335;SHT31;56477;52.742;15.242;2022-07-23T13:38:35;24.51;57.65
69335;SHT31;56477;52.742;15.242;2022-07-23T13:41:01;24.16;56.49
69335;SHT31;56477;52.742;15.242;2022-07-23T13:43:29;24.67;55.17
69335;SHT31;56477;52.742;15.242;2022-07-23T13:45:55;23.11;58.44
69335;SHT31;56477;52.742;15.242;2022-07-23T13:48:21;22.68;57.91
69335;SHT31;56477;52.742;15.242;2022-07-23T13:50:49;22.46;58.01
69335;SHT31;56477;52.742;15.242;2022-07-23T13:53:17;22.61;58.41
69335;SHT31;56477;52.742;15.242;2022-07-23T13:55:44;22.28;59.31
69335;SHT31;56477;52.742;15.242;2022-07-23T13:58:11;22.26;58.94
69335;SHT31;56477;52.742;15.242;2022-07-23T14:00:40;22.88;58.79
69335;SHT31;56477;52.742;15.242;2022-07-23T14:03:06;22.78;59.79
69335;SHT31;56477;52.742;15.242;2022-07-23T14:05:33;22.80;60.63
69335;SHT31;56477;52.742;15.242;2022-07-23T14:07:58;23.38;58.48
69335;SHT31;56477;52.742;15.242;2022-07-23T14:10:24;23.53;56.75
69335;SHT31;56477;52.742;15.242;2022-07-23T14:12:52;23.97;56.35
69335;SHT31;56477;52.742;15.242;2022-07-23T14:15:24;24.06;57.14
69335;SHT31;56477;52.742;15.242;2022-07-23T14:17:52;24.61;54.95
69335;SHT31;56477;52.742;15.242;2022-07-23T14:20:18;25.22;55.07
69335;SHT31;56477;52.742;15.242;2022-07-23T14:22:45;24.61;55.52
69335;SHT31;56477;52.742;15.242;2022-07-23T14:25:11;24.00;56.64
69335;SHT31;56477;52.742;15.242;2022-07-23T14:27:37;23.80;57.50
69335;SHT31;56477;52.742;15.242;2022-07-23T14:30:05;24.20;56.89
69335;SHT31;56477;52.742;15.242;2022-07-23T14:32:32;23.83;58.84
69335;SHT31;56477;52.742;15.242;2022-07-23T14:34:58;23.70;57.94
69335;SHT31;56477;52.742;15.242;2022-07-23T14:37:24;24.47;56.05
69335;SHT31;56477;52.742;15.242;2022-07-23T14:39:51;24.88;55.28
69335;SHT31;56477;52.742;15.242;2022-07-23T14:42:17;25.33;54.51
69335;SHT31;56477;52.742;15.242;2022-07-23T14:44:43;25.43;54.41
69335;SHT31;56477;52.742;15.242;2022-07-23T14:47:10;25.38;54.15
69335;SHT31;56477;52.742;15.242;2022-07-23T14:49:35;25.28;54.91
69335;SHT31;56477;52.742;15.242;2022-07-23T14:52:03;24.73;54.89
69335;SHT31;56477;52.742;15.242;2022-07-23T14:54:29;24.59;54.51
69335;SHT31;56477;52.742;15.242;2022-07-23T14:56:56;24.27;55.34
69335;SHT31;56477;52.742;15.242;2022-07-23T14:59:22;24.64;55.56
69335;SHT31;56477;52.742;15.242;2022-07-23T15:01:49;23.62;55.51
69335;SHT31;56477;52.742;15.242;2022-07-23T15:04:15;23.32;57.40
69335;SHT31;56477;52.742;15.242;2022-07-23T15:06:42;23.35;58.26
69335;SHT31;56477;52.742;15.242;2022-07-23T15:09:08;24.06;57.09
69335;SHT31;56477;52.742;15.242;2022-07-23T15:11:34;24.03;56.56
69335;SHT31;56477;52.742;15.242;2022-07-23T15:14:02;24.14;56.66
69335;SHT31;56477;52.742;15.242;2022-07-23T15:16:29;23.96;56.06
69335;SHT31;56477;52.742;15.242;2022-07-23T15:18:54;24.16;57.07
69335;SHT31;56477;52.742;15.242;2022-07-23T15:21:21;24.49;55.25
69335;SHT31;56477;52.742;15.242;2022-07-23T15:23:47;24.61;53.25
69335;SHT31;56477;52.742;15.242;2022-07-23T15:26:13;24.69;54.32
69335;SHT31;56477;52.742;15.242;2022-07-23T15:28:40;25.06;52.99
69335;SHT31;56477;52.742;15.242;2022-07-23T15:31:07;25.31;52.01
69335;SHT31;56477;52.742;15.242;2022-07-23T15:33:33;25.43;53.64
69335;SHT31;56477;52.742;15.242;2022-07-23T15:36:01;24.67;52.65
69335;SHT31;56477;52.742;15.242;2022-07-23T15:38:27;24.39;53.25
69335;SHT31;56477;52.742;15.242;2022-07-23T15:40:54;24.37;52.87
69335;SHT31;56477;52.742;15.242;2022-07-23T15:43:21;24.34;52.51
69335;SHT31;56477;52.742;15.242;2022-07-23T15:45:48;24.44;53.05
69335;SHT31;56477;52.742;15.242;2022-07-23T15:48:14;23.39;55.00
69335;SHT31;56477;52.742;15.242;2022-07-23T15:50:40;23.16;56.06
69335;SHT31;56477;52.742;15.242;2022-07-23T15:53:06;22.93;56.27
69335;SHT31;56477;52.742;15.242;2022-07-23T15:55:32;22.81;56.63
69335;SHT31;56477;52.742;15.242;2022-07-23T15:57:58;22.88;57.64
69335;SHT31;56477;52.742;15.242;2022-07-23T16:00:26;22.81;55.90
69335;SHT31;56477;52.742;15.242;2022-07-23T16:02:52;22.64;56.55
69335;SHT31;56477;52.742;15.242;2022-07-23T16:05:17;22.59;57.26
69335;SHT31;56477;52.742;15.242;2022-07-23T16:07:44;22.49;56.70